createdAt,value
2017-11-14T00:00:56.608Z,0
2017-11-14T00:01:58.574Z,0
2017-11-14T00:03:00.339Z,0
2017-11-14T00:04:02.025Z,0
2017-11-14T00:05:03.898Z,0
2017-11-14T00:06:05.627Z,0
2017-11-14T00:07:07.874Z,0
2017-11-14T00:08:09.586Z,0
2017-11-14T00:09:11.343Z,0
2017-11-14T00:10:13.744Z,0
2017-11-14T00:11:15.527Z,0
2017-11-14T00:12:17.552Z,0
2017-11-14T00:13:19.288Z,0
2017-11-14T00:14:21.492Z,0
2017-11-14T00:15:23.205Z,0
2017-11-14T00:16:24.922Z,0
2017-11-14T00:17:27.118Z,0
2017-11-14T00:18:28.834Z,0
2017-11-14T00:19:30.586Z,0
2017-11-14T00:20:32.312Z,0
2017-11-14T00:21:34.240Z,0
2017-11-14T00:22:36.165Z,0
2017-11-14T00:23:38.291Z,0
2017-11-14T00:24:40.471Z,0
2017-11-14T00:25:42.152Z,0
2017-11-14T00:26:43.879Z,0
2017-11-14T00:27:45.994Z,0
2017-11-14T00:28:48.082Z,0
2017-11-14T00:29:49.998Z,0
2017-11-14T00:30:51.707Z,0
2017-11-14T00:31:53.359Z,0
2017-11-14T00:32:54.844Z,0
2017-11-14T00:33:56.712Z,0
2017-11-14T00:34:58.435Z,0
2017-11-14T00:36:00.305Z,0
2017-11-14T00:37:02.253Z,0
2017-11-14T00:38:03.916Z,0
2017-11-14T00:39:06.042Z,0
2017-11-14T00:40:07.736Z,0
2017-11-14T00:41:09.443Z,0
2017-11-14T00:42:11.910Z,0
2017-11-14T00:43:14.164Z,0
2017-11-14T00:44:16.459Z,0
2017-11-14T00:45:18.571Z,0
2017-11-14T00:46:20.695Z,0
2017-11-14T00:47:22.579Z,0
2017-11-14T00:48:24.658Z,0
2017-11-14T00:49:26.366Z,0
2017-11-14T00:50:28.119Z,0
2017-11-14T00:51:29.790Z,0
2017-11-14T00:52:31.364Z,0
2017-11-14T00:53:33.075Z,0
2017-11-14T00:54:34.815Z,0
2017-11-14T00:55:36.892Z,0
2017-11-14T00:56:38.743Z,0
2017-11-14T00:57:40.582Z,0
2017-11-14T00:58:42.235Z,0
2017-11-14T00:59:43.908Z,0
2017-11-14T01:00:45.637Z,0
2017-11-14T01:01:47.215Z,0
2017-11-14T01:02:48.683Z,0
2017-11-14T01:03:50.221Z,0
2017-11-14T01:04:52.082Z,0
2017-11-14T01:05:54.182Z,0
2017-11-14T01:06:55.916Z,0
2017-11-14T01:07:57.453Z,0
2017-11-14T01:08:59.376Z,0
2017-11-14T01:10:01.112Z,0
2017-11-14T01:11:02.926Z,0
2017-11-14T01:12:04.772Z,0
2017-11-14T01:13:06.531Z,0
2017-11-14T01:14:08.249Z,0
2017-11-14T01:15:10.432Z,0
2017-11-14T01:16:12.396Z,0
2017-11-14T01:17:14.093Z,0
2017-11-14T01:18:15.833Z,0
2017-11-14T01:19:17.853Z,0
2017-11-14T01:20:19.550Z,0
2017-11-14T01:21:21.164Z,0
2017-11-14T01:22:22.913Z,0
2017-11-14T01:23:24.627Z,0
2017-11-14T01:24:26.305Z,0
2017-11-14T01:25:28.028Z,0
2017-11-14T01:26:30.095Z,0
2017-11-14T01:27:32.296Z,0
2017-11-14T01:28:33.962Z,0
2017-11-14T01:29:35.648Z,0
2017-11-14T01:30:37.844Z,0
2017-11-14T01:31:39.488Z,0
2017-11-14T01:32:41.144Z,0
2017-11-14T01:33:42.909Z,0
2017-11-14T01:34:45.095Z,0
2017-11-14T01:35:46.876Z,0
2017-11-14T01:36:48.443Z,0
2017-11-14T01:37:50.357Z,0
2017-11-14T01:38:52.031Z,0
2017-11-14T01:39:54.244Z,0
2017-11-14T01:40:55.957Z,0
2017-11-14T01:41:58.199Z,0
2017-11-14T01:42:59.926Z,0
2017-11-14T01:44:01.891Z,0
2017-11-14T01:45:03.992Z,0
2017-11-14T01:46:05.530Z,0
2017-11-14T01:47:07.279Z,0
2017-11-14T01:48:08.773Z,0
2017-11-14T01:49:10.936Z,0
2017-11-14T01:50:12.573Z,0
2017-11-14T01:51:14.517Z,0
2017-11-14T01:52:16.443Z,0
2017-11-14T01:53:18.287Z,0
2017-11-14T01:54:20.128Z,0
2017-11-14T01:55:22.044Z,0
2017-11-14T01:56:23.954Z,0
2017-11-14T01:57:25.869Z,0
2017-11-14T01:58:27.429Z,0
2017-11-14T01:59:29.591Z,0
2017-11-14T02:00:31.212Z,0
2017-11-14T02:01:33.369Z,0
2017-11-14T02:02:35.514Z,0
2017-11-14T02:03:37.186Z,0
2017-11-14T02:04:39.143Z,0
2017-11-14T02:05:40.702Z,0
2017-11-14T02:06:42.924Z,0
2017-11-14T02:07:44.693Z,0
2017-11-14T02:08:46.634Z,0
2017-11-14T02:09:48.749Z,0
2017-11-14T02:10:50.327Z,0
2017-11-14T02:11:51.929Z,0
2017-11-14T02:12:54.175Z,0
2017-11-14T02:13:55.795Z,0
2017-11-14T02:14:57.966Z,0
2017-11-14T02:15:59.501Z,0
2017-11-14T02:17:00.964Z,0
2017-11-14T02:18:02.652Z,0
2017-11-14T02:19:04.853Z,0
2017-11-14T02:20:06.785Z,0
2017-11-14T02:21:08.533Z,0
2017-11-14T02:22:10.225Z,0
2017-11-14T02:23:12.216Z,0
2017-11-14T02:24:13.984Z,0
2017-11-14T02:25:16.144Z,0
2017-11-14T02:26:17.737Z,0
2017-11-14T02:27:19.845Z,0
2017-11-14T02:28:21.420Z,0
2017-11-14T02:29:23.160Z,0
2017-11-14T02:30:25.369Z,0
2017-11-14T02:31:27.079Z,0
2017-11-14T02:32:28.994Z,0
2017-11-14T02:33:30.722Z,0
2017-11-14T02:34:32.551Z,0
2017-11-14T02:35:34.297Z,0
2017-11-14T02:36:35.774Z,0
2017-11-14T02:37:37.515Z,0
2017-11-14T02:38:39.252Z,0
2017-11-14T02:39:41.133Z,0
2017-11-14T02:40:42.640Z,0
2017-11-14T02:41:44.906Z,0
2017-11-14T02:42:47.029Z,0
2017-11-14T02:43:48.903Z,0
2017-11-14T02:44:51.066Z,0
2017-11-14T02:45:53.208Z,0
2017-11-14T02:46:54.709Z,0
2017-11-14T02:47:56.701Z,0
2017-11-14T02:48:58.666Z,0
2017-11-14T02:50:00.795Z,0
2017-11-14T02:51:02.962Z,0
2017-11-14T02:52:04.548Z,0
2017-11-14T02:53:06.218Z,0
2017-11-14T02:54:07.767Z,0
2017-11-14T02:55:09.514Z,0
2017-11-14T02:56:11.328Z,0
2017-11-14T02:57:12.983Z,0
2017-11-14T02:58:14.955Z,0
2017-11-14T02:59:17.119Z,0
2017-11-14T03:00:18.803Z,0
2017-11-14T03:01:20.539Z,0
2017-11-14T03:02:22.506Z,0
2017-11-14T03:03:24.298Z,0
2017-11-14T03:04:26.260Z,0
2017-11-14T03:05:27.921Z,0
2017-11-14T03:06:29.820Z,0
2017-11-14T03:07:31.758Z,0
2017-11-14T03:08:33.700Z,0
2017-11-14T03:09:35.781Z,0
2017-11-14T03:10:37.934Z,0
2017-11-14T03:11:39.681Z,0
2017-11-14T03:12:41.600Z,0
2017-11-14T03:13:43.381Z,0
2017-11-14T03:14:45.153Z,0
2017-11-14T03:15:47.310Z,0
2017-11-14T03:16:49.517Z,0
2017-11-14T03:17:51.460Z,0
2017-11-14T03:18:53.157Z,0
2017-11-14T03:19:54.813Z,0
2017-11-14T03:20:56.512Z,0
2017-11-14T03:21:58.261Z,0
2017-11-14T03:22:59.942Z,0
2017-11-14T03:24:01.816Z,0
2017-11-14T03:25:03.508Z,0
2017-11-14T03:26:05.324Z,0
2017-11-14T03:27:07.529Z,0
2017-11-14T03:28:09.287Z,0
2017-11-14T03:29:11.026Z,0
2017-11-14T03:30:12.899Z,0
2017-11-14T03:31:14.679Z,0
2017-11-14T03:32:16.905Z,0
2017-11-14T03:33:19.103Z,0
2017-11-14T03:34:21.186Z,0
2017-11-14T03:35:22.882Z,0
2017-11-14T03:36:24.940Z,0
2017-11-14T03:37:26.857Z,0
2017-11-14T03:38:28.616Z,0
2017-11-14T03:39:30.695Z,0
2017-11-14T03:40:32.513Z,0
2017-11-14T03:41:34.492Z,0
2017-11-14T03:42:36.667Z,0
2017-11-14T03:43:38.669Z,0
2017-11-14T03:44:40.462Z,0
2017-11-14T03:45:42.431Z,0
2017-11-14T03:46:44.464Z,0
2017-11-14T03:47:46.651Z,0
2017-11-14T03:48:48.376Z,0
2017-11-14T03:49:50.150Z,0
2017-11-14T03:50:51.996Z,0
2017-11-14T03:51:53.815Z,0
2017-11-14T03:52:55.361Z,0
2017-11-14T03:53:57.276Z,0
2017-11-14T03:54:59.026Z,0
2017-11-14T03:56:01.230Z,0
2017-11-14T03:57:03.127Z,0
2017-11-14T03:58:05.090Z,0
2017-11-14T03:59:06.966Z,0
2017-11-14T04:00:08.797Z,0
2017-11-14T04:01:10.683Z,0
2017-11-14T04:02:12.428Z,0
2017-11-14T04:03:14.275Z,0
2017-11-14T04:04:16.539Z,0
2017-11-14T04:05:18.213Z,0
2017-11-14T04:06:20.146Z,0
2017-11-14T04:07:21.689Z,0
2017-11-14T04:08:23.448Z,0
2017-11-14T04:09:25.390Z,0
2017-11-14T04:10:27.326Z,0
2017-11-14T04:11:29.313Z,0
2017-11-14T04:12:30.965Z,0
2017-11-14T04:13:32.520Z,0
2017-11-14T04:14:34.253Z,0
2017-11-14T04:15:36.177Z,0
2017-11-14T04:16:38.198Z,0
2017-11-14T04:17:39.887Z,0
2017-11-14T04:18:41.666Z,0
2017-11-14T04:19:43.439Z,0
2017-11-14T04:20:45.355Z,0
2017-11-14T04:21:46.977Z,0
2017-11-14T04:22:48.685Z,0
2017-11-14T04:23:50.368Z,0
2017-11-14T04:24:52.303Z,0
2017-11-14T04:25:53.814Z,0
2017-11-14T04:26:55.796Z,0
2017-11-14T04:27:57.357Z,0
2017-11-14T04:28:59.082Z,0
2017-11-14T04:30:01.036Z,0
2017-11-14T04:31:03.220Z,0
2017-11-14T04:32:04.732Z,0
2017-11-14T04:33:06.837Z,0
2017-11-14T04:34:08.507Z,0
2017-11-14T04:35:10.274Z,0
2017-11-14T04:36:12.145Z,0
2017-11-14T04:37:14.175Z,0
2017-11-14T04:38:16.339Z,0
2017-11-14T04:39:18.536Z,0
2017-11-14T04:40:20.373Z,0
2017-11-14T04:41:22.030Z,0
2017-11-14T04:42:24.243Z,0
2017-11-14T04:43:25.887Z,0
2017-11-14T04:44:27.991Z,0
2017-11-14T04:45:29.443Z,0
2017-11-14T04:46:31.589Z,0
2017-11-14T04:47:33.106Z,0
2017-11-14T04:48:35.045Z,0
2017-11-14T04:49:36.968Z,0
2017-11-14T04:50:38.869Z,0
2017-11-14T04:51:40.959Z,0
2017-11-14T04:52:42.461Z,0
2017-11-14T04:53:44.131Z,0
2017-11-14T04:54:46.096Z,0
2017-11-14T04:55:48.217Z,0
2017-11-14T04:56:49.702Z,0
2017-11-14T04:57:51.241Z,0
2017-11-14T04:58:53.510Z,0
2017-11-14T04:59:55.256Z,0
2017-11-14T05:00:57.422Z,0
2017-11-14T05:01:59.601Z,0
2017-11-14T05:03:01.480Z,0
2017-11-14T05:04:03.563Z,0
2017-11-14T05:05:05.270Z,0
2017-11-14T05:06:06.804Z,0
2017-11-14T05:07:08.754Z,0
2017-11-14T05:08:10.227Z,0
2017-11-14T05:09:12.607Z,0
2017-11-14T05:10:14.671Z,0
2017-11-14T05:11:16.360Z,0
2017-11-14T05:12:18.385Z,0
2017-11-14T05:13:20.413Z,0
2017-11-14T05:14:22.300Z,0
2017-11-14T05:15:24.514Z,0
2017-11-14T05:16:26.225Z,0
2017-11-14T05:17:27.898Z,0
2017-11-14T05:18:29.791Z,0
2017-11-14T05:19:31.560Z,0
2017-11-14T05:20:33.812Z,0
2017-11-14T05:21:35.923Z,0
2017-11-14T05:22:37.685Z,0
2017-11-14T05:23:39.590Z,0
2017-11-14T05:24:41.372Z,0
2017-11-14T05:25:43.181Z,0
2017-11-14T05:26:44.921Z,0
2017-11-14T05:27:46.422Z,0
2017-11-14T05:28:48.099Z,0
2017-11-14T05:29:49.897Z,0
2017-11-14T05:30:51.583Z,0
2017-11-14T05:31:53.382Z,0
2017-11-14T05:32:55.050Z,0
2017-11-14T05:33:56.774Z,0
2017-11-14T05:34:58.872Z,0
2017-11-14T05:36:00.604Z,0
2017-11-14T05:37:02.346Z,0
2017-11-14T05:38:04.429Z,0
2017-11-14T05:39:06.382Z,0
2017-11-14T05:40:07.815Z,0
2017-11-14T05:41:09.781Z,0
2017-11-14T05:42:12.222Z,0
2017-11-14T05:43:13.844Z,0
2017-11-14T05:44:15.913Z,0
2017-11-14T05:45:17.703Z,0
2017-11-14T05:46:19.466Z,0
2017-11-14T05:47:21.252Z,0
2017-11-14T05:48:22.975Z,0
2017-11-14T05:49:24.999Z,0
2017-11-14T05:50:26.705Z,0
2017-11-14T05:51:28.734Z,0
2017-11-14T05:52:30.565Z,0
2017-11-14T05:53:32.343Z,0
2017-11-14T05:54:34.443Z,0
2017-11-14T05:55:36.156Z,0
2017-11-14T05:56:37.749Z,0
2017-11-14T05:57:39.390Z,0
2017-11-14T05:58:41.462Z,0
2017-11-14T05:59:43.198Z,0
2017-11-14T06:00:44.645Z,0
2017-11-14T06:01:46.466Z,0
2017-11-14T06:02:48.228Z,0
2017-11-14T06:03:49.924Z,0
2017-11-14T06:04:51.975Z,0
2017-11-14T06:05:53.750Z,0
2017-11-14T06:06:55.521Z,0
2017-11-14T06:07:57.247Z,0
2017-11-14T06:08:58.727Z,4
2017-11-14T06:10:00.934Z,0
2017-11-14T06:11:02.627Z,0
2017-11-14T06:12:04.371Z,4
2017-11-14T06:13:05.796Z,4
2017-11-14T06:14:07.328Z,0
2017-11-14T06:15:09.054Z,4
2017-11-14T06:16:10.731Z,8
2017-11-14T06:17:12.477Z,4
2017-11-14T06:18:14.227Z,4
2017-11-14T06:19:16.283Z,8
2017-11-14T06:20:18.285Z,8
2017-11-14T06:21:20.319Z,12
2017-11-14T06:22:22.042Z,16
2017-11-14T06:23:23.785Z,12
2017-11-14T06:24:25.503Z,16
2017-11-14T06:25:26.938Z,24
2017-11-14T06:26:28.376Z,24
2017-11-14T06:27:29.988Z,32
2017-11-14T06:28:32.082Z,36
2017-11-14T06:29:33.787Z,40
2017-11-14T06:30:35.893Z,48
2017-11-14T06:31:37.530Z,56
2017-11-14T06:32:39.254Z,60
2017-11-14T06:33:41.381Z,72
2017-11-14T06:34:43.364Z,80
2017-11-14T06:35:45.437Z,92
2017-11-14T06:36:47.140Z,108
2017-11-14T06:37:48.926Z,120
2017-11-14T06:38:50.611Z,136
2017-11-14T06:39:52.297Z,152
2017-11-14T06:40:54.115Z,168
2017-11-14T06:41:56.125Z,188
2017-11-14T06:42:57.836Z,212
2017-11-14T06:43:59.548Z,236
2017-11-14T06:45:01.072Z,256
2017-11-14T06:46:02.497Z,276
2017-11-14T06:47:04.526Z,300
2017-11-14T06:48:06.256Z,324
2017-11-14T06:49:07.931Z,348
2017-11-14T06:50:09.706Z,380
2017-11-14T06:51:11.250Z,412
2017-11-14T06:52:13.406Z,436
2017-11-14T06:53:15.156Z,464
2017-11-14T06:54:16.894Z,504
2017-11-14T06:55:18.899Z,552
2017-11-14T06:56:20.562Z,612
2017-11-14T06:57:22.287Z,672
2017-11-14T06:58:23.955Z,708
2017-11-14T06:59:25.473Z,748
2017-11-14T07:00:26.944Z,784
2017-11-14T07:01:28.557Z,824
2017-11-14T07:02:30.333Z,856
2017-11-14T07:03:31.780Z,880
2017-11-14T07:04:33.238Z,900
2017-11-14T07:05:34.709Z,948
2017-11-14T07:06:36.429Z,1004
2017-11-14T07:07:38.136Z,1060
2017-11-14T07:08:39.922Z,1140
2017-11-14T07:09:41.540Z,1240
2017-11-14T07:10:43.725Z,1352
2017-11-14T07:11:45.390Z,1460
2017-11-14T07:12:47.170Z,1564
2017-11-14T07:13:49.154Z,1648
2017-11-14T07:14:50.940Z,1736
2017-11-14T07:15:52.393Z,1844
2017-11-14T07:16:54.555Z,1980
2017-11-14T07:17:56.216Z,2120
2017-11-14T07:18:57.962Z,2248
2017-11-14T07:19:59.404Z,2404
2017-11-14T07:21:01.137Z,2580
2017-11-14T07:22:02.936Z,2744
2017-11-14T07:23:04.689Z,2860
2017-11-14T07:24:06.484Z,2952
2017-11-14T07:25:08.495Z,3048
2017-11-14T07:26:10.163Z,3132
2017-11-14T07:27:11.823Z,3220
2017-11-14T07:28:13.655Z,3292
2017-11-14T07:29:15.891Z,3340
2017-11-14T07:30:17.291Z,3312
2017-11-14T07:31:19.061Z,3272
2017-11-14T07:32:20.821Z,3292
2017-11-14T07:33:22.804Z,3344
2017-11-14T07:34:24.571Z,3280
2017-11-14T07:35:26.111Z,3148
2017-11-14T07:36:27.910Z,3048
2017-11-14T07:37:29.632Z,2888
2017-11-14T07:38:31.411Z,2728
2017-11-14T07:39:33.119Z,2560
2017-11-14T07:40:34.818Z,2336
2017-11-14T07:41:36.519Z,2144
2017-11-14T07:42:38.399Z,2124
2017-11-14T07:43:40.098Z,2168
2017-11-14T07:44:41.812Z,2304
2017-11-14T07:45:43.630Z,2516
2017-11-14T07:46:45.576Z,2588
2017-11-14T07:47:47.262Z,2496
2017-11-14T07:48:49.357Z,2496
2017-11-14T07:49:51.100Z,2696
2017-11-14T07:50:52.867Z,2920
2017-11-14T07:51:54.542Z,3020
2017-11-14T07:52:56.706Z,3104
2017-11-14T07:53:58.463Z,3312
2017-11-14T07:55:00.309Z,3556
2017-11-14T07:56:02.416Z,3708
2017-11-14T07:57:03.940Z,3972
2017-11-14T07:58:05.468Z,4260
2017-11-14T07:59:07.627Z,4420
2017-11-14T08:00:09.244Z,4604
2017-11-14T08:01:10.991Z,5124
2017-11-14T08:02:12.685Z,6016
2017-11-14T08:03:14.782Z,6824
2017-11-14T08:04:16.779Z,7424
2017-11-14T08:05:18.390Z,7972
2017-11-14T08:06:20.332Z,8420
2017-11-14T08:07:21.830Z,8564
2017-11-14T08:08:23.997Z,8356
2017-11-14T08:09:25.718Z,7932
2017-11-14T08:10:27.421Z,7388
2017-11-14T08:11:29.275Z,6824
2017-11-14T08:12:30.758Z,6392
2017-11-14T08:13:32.381Z,6140
2017-11-14T08:14:34.421Z,6196
2017-11-14T08:15:36.494Z,6808
2017-11-14T08:16:37.902Z,6444
2017-11-14T08:17:39.603Z,6168
2017-11-14T08:18:41.067Z,6340
2017-11-14T08:19:42.551Z,7232
2017-11-14T08:20:44.348Z,7336
2017-11-14T08:21:46.108Z,9364
2017-11-14T08:22:47.819Z,7464
2017-11-14T08:23:49.436Z,6796
2017-11-14T08:24:51.119Z,6924
2017-11-14T08:25:52.893Z,7004
2017-11-14T08:26:54.382Z,7008
2017-11-14T08:27:56.401Z,6936
2017-11-14T08:28:58.534Z,6812
2017-11-14T08:30:00.526Z,6704
2017-11-14T08:31:02.054Z,6612
2017-11-14T08:32:03.847Z,6684
2017-11-14T08:33:06.013Z,6832
2017-11-14T08:34:07.687Z,7144
2017-11-14T08:35:09.257Z,7496
2017-11-14T08:36:10.877Z,8000
2017-11-14T08:37:12.408Z,8592
2017-11-14T08:38:14.281Z,8604
2017-11-14T08:39:16.426Z,8188
2017-11-14T08:40:17.853Z,7932
2017-11-14T08:41:20.059Z,7984
2017-11-14T08:42:21.753Z,7728
2017-11-14T08:43:23.886Z,7168
2017-11-14T08:44:25.640Z,6720
2017-11-14T08:45:27.409Z,6428
2017-11-14T08:46:29.449Z,6196
2017-11-14T08:47:30.916Z,6052
2017-11-14T08:48:33.070Z,5940
2017-11-14T08:49:34.781Z,5852
2017-11-14T08:50:36.230Z,5744
2017-11-14T08:51:37.681Z,5640
2017-11-14T08:52:39.400Z,5612
2017-11-14T08:53:41.141Z,5588
2017-11-14T08:54:42.936Z,5688
2017-11-14T08:55:44.459Z,5848
2017-11-14T08:56:45.907Z,6044
2017-11-14T08:57:47.647Z,6248
2017-11-14T08:58:49.411Z,6440
2017-11-14T08:59:51.281Z,6708
2017-11-14T09:00:52.942Z,7040
2017-11-14T09:01:54.414Z,7548
2017-11-14T09:02:56.172Z,8104
2017-11-14T09:03:57.992Z,8708
2017-11-14T09:04:59.825Z,9188
2017-11-14T09:06:01.990Z,9472
2017-11-14T09:07:03.956Z,9660
2017-11-14T09:08:05.988Z,9768
2017-11-14T09:09:07.700Z,9772
2017-11-14T09:10:09.505Z,9680
2017-11-14T09:11:11.409Z,9460
2017-11-14T09:12:12.831Z,9168
2017-11-14T09:13:14.348Z,8800
2017-11-14T09:14:16.361Z,8332
2017-11-14T09:15:18.024Z,8016
2017-11-14T09:16:19.806Z,8380
2017-11-14T09:17:21.543Z,7108
2017-11-14T09:18:23.272Z,6620
2017-11-14T09:19:24.774Z,6864
2017-11-14T09:20:26.225Z,7224
2017-11-14T09:21:27.950Z,7816
2017-11-14T09:22:30.049Z,8208
2017-11-14T09:23:31.653Z,8348
2017-11-14T09:24:33.332Z,7740
2017-11-14T09:25:34.851Z,6464
2017-11-14T09:26:36.654Z,5904
2017-11-14T09:27:38.178Z,6296
2017-11-14T09:28:39.733Z,7312
2017-11-14T09:29:42.190Z,8704
2017-11-14T09:30:43.672Z,9276
2017-11-14T09:31:45.125Z,8824
2017-11-14T09:32:47.011Z,8436
2017-11-14T09:33:48.491Z,8124
2017-11-14T09:34:50.277Z,7756
2017-11-14T09:35:52.020Z,7292
2017-11-14T09:36:54.141Z,7120
2017-11-14T09:37:56.222Z,7160
2017-11-14T09:38:57.666Z,7000
2017-11-14T09:39:59.147Z,7396
2017-11-14T09:41:00.870Z,8244
2017-11-14T09:42:02.560Z,8528
2017-11-14T09:43:04.119Z,8180
2017-11-14T09:44:05.877Z,7784
2017-11-14T09:45:07.979Z,7992
2017-11-14T09:46:09.727Z,8588
2017-11-14T09:47:11.224Z,9404
2017-11-14T09:48:12.983Z,9864
2017-11-14T09:49:14.792Z,9616
2017-11-14T09:50:16.832Z,8964
2017-11-14T09:51:18.298Z,8444
2017-11-14T09:52:20.465Z,8240
2017-11-14T09:53:21.912Z,8192
2017-11-14T09:54:23.737Z,8084
2017-11-14T09:55:25.218Z,8280
2017-11-14T09:56:26.702Z,8540
2017-11-14T09:57:28.391Z,8992
2017-11-14T09:58:30.107Z,9584
2017-11-14T09:59:31.821Z,9668
2017-11-14T10:00:33.325Z,9168
2017-11-14T10:01:34.806Z,8724
2017-11-14T10:02:36.841Z,8624
2017-11-14T10:03:39.044Z,8576
2017-11-14T10:04:40.481Z,8744
2017-11-14T10:05:42.104Z,8960
2017-11-14T10:06:44.336Z,8984
2017-11-14T10:07:45.849Z,8728
2017-11-14T10:08:47.627Z,8568
2017-11-14T10:09:49.327Z,8272
2017-11-14T10:10:50.777Z,7832
2017-11-14T10:11:52.844Z,7396
2017-11-14T10:12:54.572Z,6964
2017-11-14T10:13:56.278Z,6624
2017-11-14T10:14:58.053Z,6432
2017-11-14T10:16:00.032Z,6580
2017-11-14T10:17:01.668Z,6840
2017-11-14T10:18:03.759Z,6836
2017-11-14T10:19:05.427Z,6528
2017-11-14T10:20:07.070Z,6232
2017-11-14T10:21:08.604Z,6272
2017-11-14T10:22:10.666Z,6432
2017-11-14T10:23:12.841Z,6708
2017-11-14T10:24:14.566Z,6876
2017-11-14T10:25:16.696Z,6996
2017-11-14T10:26:18.289Z,7236
2017-11-14T10:27:20.477Z,7340
2017-11-14T10:28:22.222Z,7352
2017-11-14T10:29:24.397Z,7376
2017-11-14T10:30:26.102Z,7480
2017-11-14T10:31:27.924Z,7348
2017-11-14T10:32:29.658Z,7028
2017-11-14T10:33:31.332Z,6788
2017-11-14T10:34:33.037Z,6860
2017-11-14T10:35:34.855Z,7772
2017-11-14T10:36:36.871Z,9200
2017-11-14T10:37:38.547Z,9784
2017-11-14T10:38:40.011Z,9640
2017-11-14T10:39:41.771Z,9568
2017-11-14T10:40:43.408Z,9908
2017-11-14T10:41:44.911Z,10192
2017-11-14T10:42:46.598Z,10700
2017-11-14T10:43:48.614Z,11552
2017-11-14T10:44:50.298Z,11708
2017-11-14T10:45:52.420Z,11840
2017-11-14T10:46:54.347Z,12256
2017-11-14T10:47:56.104Z,12960
2017-11-14T10:48:57.797Z,13180
2017-11-14T10:49:59.264Z,13488
2017-11-14T10:51:01.355Z,13832
2017-11-14T10:52:03.021Z,13660
2017-11-14T10:53:04.905Z,14348
2017-11-14T10:54:06.662Z,14944
2017-11-14T10:55:08.668Z,17120
2017-11-14T10:56:10.197Z,21568
2017-11-14T10:57:12.191Z,19808
2017-11-14T10:58:13.855Z,12144
2017-11-14T10:59:15.929Z,17312
2017-11-14T11:00:17.508Z,15584
2017-11-14T11:01:19.335Z,16032
2017-11-14T11:02:21.057Z,19264
2017-11-14T11:03:22.786Z,15840
2017-11-14T11:04:24.540Z,12788
2017-11-14T11:05:26.722Z,13028
2017-11-14T11:06:28.539Z,14344
2017-11-14T11:07:30.242Z,14496
2017-11-14T11:08:31.672Z,13868
2017-11-14T11:09:33.152Z,20480
2017-11-14T11:10:34.817Z,23808
2017-11-14T11:11:36.807Z,23968
2017-11-14T11:12:38.559Z,23648
2017-11-14T11:13:40.394Z,28224
2017-11-14T11:14:42.153Z,26752
2017-11-14T11:15:43.562Z,21120
2017-11-14T11:16:45.229Z,19936
2017-11-14T11:17:47.014Z,18944
2017-11-14T11:18:48.786Z,18400
2017-11-14T11:19:50.257Z,18144
2017-11-14T11:20:51.736Z,17600
2017-11-14T11:21:53.538Z,17696
2017-11-14T11:22:55.318Z,18240
2017-11-14T11:23:57.109Z,18304
2017-11-14T11:24:58.788Z,17632
2017-11-14T11:26:00.649Z,16768
2017-11-14T11:27:02.379Z,15936
2017-11-14T11:28:03.821Z,14932
2017-11-14T11:29:05.944Z,13508
2017-11-14T11:30:07.685Z,12520
2017-11-14T11:31:09.797Z,12140
2017-11-14T11:32:11.492Z,11932
2017-11-14T11:33:12.932Z,11672
2017-11-14T11:34:14.770Z,11720
2017-11-14T11:35:16.493Z,11192
2017-11-14T11:36:18.151Z,9916
2017-11-14T11:37:19.590Z,9496
2017-11-14T11:38:21.049Z,9128
2017-11-14T11:39:22.507Z,8688
2017-11-14T11:40:24.714Z,9100
2017-11-14T11:41:26.382Z,10356
2017-11-14T11:42:27.855Z,11360
2017-11-14T11:43:29.356Z,11968
2017-11-14T11:44:31.051Z,11776
2017-11-14T11:45:32.505Z,10084
2017-11-14T11:46:34.206Z,7784
2017-11-14T11:47:35.683Z,6284
2017-11-14T11:48:37.524Z,5280
2017-11-14T11:49:39.244Z,4480
2017-11-14T11:50:40.973Z,3936
2017-11-14T11:51:43.020Z,3704
2017-11-14T11:52:44.803Z,3684
2017-11-14T11:53:47.009Z,3608
2017-11-14T11:54:48.434Z,3584
2017-11-14T11:55:50.009Z,3764
2017-11-14T11:56:51.699Z,4164
2017-11-14T11:57:53.483Z,4180
2017-11-14T11:58:55.216Z,3972
2017-11-14T11:59:56.702Z,3936
2017-11-14T12:00:58.174Z,3904
2017-11-14T12:01:59.911Z,3980
2017-11-14T12:03:01.644Z,4224
2017-11-14T12:04:03.364Z,4664
2017-11-14T12:05:05.475Z,5620
2017-11-14T12:06:07.228Z,6808
2017-11-14T12:07:08.948Z,9280
2017-11-14T12:08:10.589Z,13160
2017-11-14T12:09:12.319Z,16800
2017-11-14T12:10:13.807Z,15808
2017-11-14T12:11:15.283Z,20672
2017-11-14T12:12:16.969Z,16928
2017-11-14T12:13:18.635Z,14380
2017-11-14T12:14:20.301Z,13216
2017-11-14T12:15:22.438Z,13360
2017-11-14T12:16:24.155Z,11620
2017-11-14T12:17:25.854Z,10708
2017-11-14T12:18:27.802Z,9328
2017-11-14T12:19:29.527Z,9064
2017-11-14T12:20:31.557Z,8808
2017-11-14T12:21:33.618Z,7860
2017-11-14T12:22:35.128Z,7668
2017-11-14T12:23:36.819Z,7520
2017-11-14T12:24:38.536Z,7560
2017-11-14T12:25:40.191Z,7528
2017-11-14T12:26:42.047Z,8212
2017-11-14T12:27:43.473Z,9960
2017-11-14T12:28:45.129Z,9436
2017-11-14T12:29:47.317Z,10736
2017-11-14T12:30:49.052Z,12208
2017-11-14T12:31:50.798Z,9816
2017-11-14T12:32:52.310Z,9752
2017-11-14T12:33:53.728Z,10224
2017-11-14T12:34:55.333Z,12160
2017-11-14T12:35:57.077Z,12288
2017-11-14T12:36:59.105Z,14232
2017-11-14T12:38:00.556Z,10056
2017-11-14T12:39:02.679Z,8196
2017-11-14T12:40:04.132Z,7136
2017-11-14T12:41:05.970Z,6848
2017-11-14T12:42:07.628Z,7072
2017-11-14T12:43:09.323Z,7308
2017-11-14T12:44:11.048Z,7348
2017-11-14T12:45:12.751Z,6928
2017-11-14T12:46:14.206Z,6512
2017-11-14T12:47:15.912Z,6624
2017-11-14T12:48:17.653Z,6844
2017-11-14T12:49:19.599Z,7804
2017-11-14T12:50:21.315Z,9452
2017-11-14T12:51:23.035Z,10632
2017-11-14T12:52:25.212Z,10840
2017-11-14T12:53:26.680Z,10300
2017-11-14T12:54:28.171Z,9920
2017-11-14T12:55:29.965Z,10384
2017-11-14T12:56:32.089Z,10872
2017-11-14T12:57:33.433Z,10740
2017-11-14T12:58:34.901Z,10268
2017-11-14T12:59:36.524Z,10228
2017-11-14T13:00:38.299Z,10284
2017-11-14T13:01:39.817Z,10420
2017-11-14T13:02:41.481Z,10836
2017-11-14T13:03:43.475Z,11376
2017-11-14T13:04:44.915Z,10676
2017-11-14T13:05:47.072Z,10328
2017-11-14T13:06:48.674Z,9744
2017-11-14T13:07:50.356Z,9308
2017-11-14T13:08:52.054Z,8928
2017-11-14T13:09:53.508Z,8352
2017-11-14T13:10:54.995Z,7976
2017-11-14T13:11:56.615Z,7568
2017-11-14T13:12:58.876Z,7144
2017-11-14T13:14:01.053Z,6792
2017-11-14T13:15:02.591Z,6468
2017-11-14T13:16:04.281Z,6412
2017-11-14T13:17:06.019Z,6592
2017-11-14T13:18:07.484Z,6648
2017-11-14T13:19:08.946Z,6528
2017-11-14T13:20:10.401Z,6688
2017-11-14T13:21:11.903Z,7016
2017-11-14T13:22:13.496Z,7292
2017-11-14T13:23:15.304Z,7200
2017-11-14T13:24:17.470Z,7084
2017-11-14T13:25:19.153Z,6800
2017-11-14T13:26:20.598Z,6732
2017-11-14T13:27:22.017Z,7156
2017-11-14T13:28:23.925Z,8204
2017-11-14T13:29:25.618Z,9180
2017-11-14T13:30:27.748Z,9648
2017-11-14T13:31:29.846Z,9200
2017-11-14T13:32:31.365Z,8844
2017-11-14T13:33:32.914Z,7756
2017-11-14T13:34:34.591Z,7140
2017-11-14T13:35:36.089Z,6692
2017-11-14T13:36:37.622Z,6280
2017-11-14T13:37:39.380Z,5896
2017-11-14T13:38:41.060Z,5464
2017-11-14T13:39:42.454Z,5456
2017-11-14T13:40:44.194Z,5820
2017-11-14T13:41:45.865Z,6048
2017-11-14T13:42:47.911Z,6064
2017-11-14T13:43:49.705Z,6064
2017-11-14T13:44:51.465Z,6224
2017-11-14T13:45:52.892Z,6312
2017-11-14T13:46:54.653Z,6420
2017-11-14T13:47:56.082Z,6240
2017-11-14T13:48:57.748Z,6040
2017-11-14T13:49:59.460Z,5900
2017-11-14T13:51:01.413Z,5832
2017-11-14T13:52:03.099Z,5704
2017-11-14T13:53:04.609Z,5656
2017-11-14T13:54:06.674Z,5384
2017-11-14T13:55:08.347Z,5068
2017-11-14T13:56:09.831Z,5100
2017-11-14T13:57:11.527Z,5080
2017-11-14T13:58:13.543Z,4912
2017-11-14T13:59:15.676Z,4348
2017-11-14T14:00:17.709Z,3824
2017-11-14T14:01:19.769Z,3436
2017-11-14T14:02:21.218Z,3160
2017-11-14T14:03:22.710Z,2952
2017-11-14T14:04:24.155Z,2752
2017-11-14T14:05:25.595Z,2580
2017-11-14T14:06:27.521Z,2484
2017-11-14T14:07:29.038Z,2456
2017-11-14T14:08:30.478Z,2440
2017-11-14T14:09:32.201Z,2424
2017-11-14T14:10:34.238Z,2388
2017-11-14T14:11:35.945Z,2348
2017-11-14T14:12:37.400Z,2316
2017-11-14T14:13:38.903Z,2284
2017-11-14T14:14:40.699Z,2252
2017-11-14T14:15:42.172Z,2208
2017-11-14T14:16:43.864Z,2192
2017-11-14T14:17:45.823Z,2144
2017-11-14T14:18:47.650Z,2052
2017-11-14T14:19:49.359Z,2036